Time;durP1;ratioP1;P1;durP2;ratioP2;P2;SDS_P1;SDS_P2;PMS_P1;PMS_P2;Temp;Humidity;BMP_temperature;BMP_pressure;BME280_temperature;BME280_humidity;BME280_pressure;Samples;Min_cycle;Max_cycle;Signal;HPM_P1;HPM_P2
2021/07/22 00:03:47;;;;;;;11.07;6.45;;;;;;;15.89;58.22;100495.78;10364662;28;20053;-59
2021/07/22 00:09:04;;;;;;;10.90;6.55;;;;;;;15.83;58.13;100490.94;10365831;28;20436;-59
2021/07/22 00:14:06;;;;;;;9.48;6.57;;;;;;;15.69;58.80;100491.09;10380415;28;20630;-59
2021/07/22 00:19:07;;;;;;;11.52;7.35;;;;;;;15.64;58.98;100493.22;10365586;28;20065;-59
2021/07/22 00:24:09;;;;;;;13.68;7.00;;;;;;;15.68;58.90;100492.03;10364713;28;20080;-59
2021/07/22 00:29:11;;;;;;;11.88;7.18;;;;;;;15.63;58.71;100488.91;10364470;28;20052;-59
2021/07/22 00:34:13;;;;;;;11.57;6.75;;;;;;;15.59;58.70;100489.22;10364249;28;20128;-59
2021/07/22 00:39:16;;;;;;;9.65;6.60;;;;;;;15.59;58.89;100492.69;10364144;28;20289;-59
2021/07/22 00:44:18;;;;;;;8.73;6.68;;;;;;;15.56;58.92;100490.28;10363811;28;20104;-59
2021/07/22 00:49:20;;;;;;;11.13;6.45;;;;;;;15.52;58.87;100487.97;10364283;28;20161;-59
2021/07/22 00:54:21;;;;;;;10.15;6.50;;;;;;;15.45;59.08;100482.25;10363970;28;20129;-59
2021/07/22 00:59:23;;;;;;;9.25;6.72;;;;;;;15.37;59.15;100485.44;10364236;28;20050;-59
2021/07/22 01:04:25;;;;;;;9.60;6.50;;;;;;;15.37;59.18;100471.41;10363728;28;20494;-59
2021/07/22 01:09:26;;;;;;;10.65;7.03;;;;;;;15.33;59.33;100473.44;10364109;28;20449;-61
2021/07/22 01:14:28;;;;;;;10.07;6.70;;;;;;;15.29;59.24;100469.34;10362820;28;20057;-59
2021/07/22 01:19:30;;;;;;;10.15;7.28;;;;;;;15.21;59.40;100471.66;10364148;28;20093;-59
2021/07/22 01:24:31;;;;;;;10.75;6.45;;;;;;;15.14;59.45;100467.75;10363228;28;20046;-59
2021/07/22 01:29:34;;;;;;;10.70;7.07;;;;;;;15.09;59.76;100471.69;10363488;28;20073;-59
2021/07/22 01:34:36;;;;;;;10.73;6.85;;;;;;;15.04;59.95;100465.91;10363330;28;20124;-59
2021/07/22 01:39:38;;;;;;;10.57;6.82;;;;;;;14.89;60.12;100470.44;10362627;28;20050;-59
2021/07/22 01:44:40;;;;;;;12.77;6.82;;;;;;;14.84;60.33;100471.72;10362716;28;20042;-60
2021/07/22 01:49:42;;;;;;;11.13;7.32;;;;;;;14.80;60.28;100472.88;10363094;28;20520;-58
2021/07/22 01:54:44;;;;;;;11.45;6.78;;;;;;;14.68;60.70;100463.16;10362469;28;20046;-59
2021/07/22 01:59:45;;;;;;;8.00;6.30;;;;;;;14.73;60.24;100467.19;10361296;28;20060;-59
2021/07/22 02:04:47;;;;;;;11.48;6.78;;;;;;;14.76;60.41;100476.66;10368044;28;20086;-59
2021/07/22 02:09:48;;;;;;;11.18;6.90;;;;;;;14.66;60.51;100465.88;10369038;28;20077;-59
2021/07/22 02:14:50;;;;;;;10.15;6.70;;;;;;;14.64;60.49;100470.41;10369378;28;20473;-59
2021/07/22 02:19:52;;;;;;;18.92;6.95;;;;;;;14.72;60.51;100469.88;10368492;28;20088;-59
2021/07/22 02:24:54;;;;;;;10.63;6.97;;;;;;;14.68;60.36;100465.78;10374100;28;20073;-59
2021/07/22 02:29:55;;;;;;;10.68;7.13;;;;;;;14.62;60.27;100469.69;10376981;28;20116;-59
2021/07/22 02:34:57;;;;;;;11.73;6.80;;;;;;;14.54;60.45;100475.47;10376656;28;20550;-59
2021/07/22 02:39:58;;;;;;;10.60;6.35;;;;;;;14.49;60.47;100474.91;10376199;28;20054;-59
2021/07/22 02:45:00;;;;;;;9.75;6.63;;;;;;;14.46;60.42;100477.75;10376332;28;20077;-60
2021/07/22 02:50:02;;;;;;;11.13;7.18;;;;;;;14.43;60.17;100475.31;10375937;28;20128;-59
2021/07/22 02:55:04;;;;;;;14.65;7.68;;;;;;;14.23;60.55;100470.53;10375387;28;20077;-59
2021/07/22 03:00:07;;;;;;;11.07;6.63;;;;;;;14.13;60.88;100471.22;10374852;28;20052;-59
2021/07/22 03:05:09;;;;;;;11.18;6.72;;;;;;;14.15;60.99;100477.22;10370424;28;20057;-59
2021/07/22 03:10:11;;;;;;;10.68;6.53;;;;;;;14.13;60.88;100474.72;10369809;28;20145;-59
2021/07/22 03:15:13;;;;;;;11.48;6.55;;;;;;;14.10;61.15;100485.44;10366781;28;20117;-59
2021/07/22 03:20:14;;;;;;;10.13;6.32;;;;;;;14.08;60.96;100483.84;10367785;28;20168;-59
2021/07/22 03:25:16;;;;;;;12.52;7.22;;;;;;;13.96;61.35;100484.66;10367230;28;20085;-59
2021/07/22 03:30:18;;;;;;;12.52;6.90;;;;;;;13.84;61.32;100482.81;10367285;28;20475;-59
2021/07/22 03:35:20;;;;;;;14.30;7.57;;;;;;;13.81;61.17;100477.75;10366043;28;20145;-59
2021/07/22 03:40:21;;;;;;;10.63;7.25;;;;;;;13.77;61.57;100477.09;10366386;28;20133;-59
2021/07/22 03:45:23;;;;;;;13.52;6.85;;;;;;;13.81;61.59;100483.00;10367074;28;20056;-59
2021/07/22 03:50:25;;;;;;;12.07;7.30;;;;;;;13.94;61.40;100476.88;10366491;28;20469;-59
2021/07/22 03:55:26;;;;;;;9.50;6.68;;;;;;;14.05;61.28;100476.16;10366670;28;20081;-59
2021/07/22 04:00:31;;;;;;;9.95;6.65;;;;;;;14.19;61.02;100470.81;10366220;28;20058;-59
2021/07/22 04:05:33;;;;;;;9.73;6.97;;;;;;;14.36;60.80;100474.03;10365933;28;20451;-59
2021/07/22 04:10:34;;;;;;;11.55;7.00;;;;;;;14.47;60.53;100479.41;10365980;28;20128;-59
2021/07/22 04:15:36;;;;;;;11.38;7.20;;;;;;;14.49;60.32;100482.81;10364110;28;20468;-59
2021/07/22 04:20:38;;;;;;;10.68;7.07;;;;;;;14.55;60.21;100479.78;10365594;28;20117;-59
2021/07/22 04:25:39;;;;;;;10.93;6.95;;;;;;;14.59;60.17;100476.00;10365190;28;20120;-59
2021/07/22 04:30:41;;;;;;;12.10;7.10;;;;;;;14.66;60.27;100478.19;10365178;28;20141;-59
2021/07/22 04:35:43;;;;;;;10.20;6.63;;;;;;;14.70;60.26;100480.53;10363853;28;20133;-59
2021/07/22 04:40:44;;;;;;;9.65;6.60;;;;;;;14.72;60.41;100489.16;10364389;28;20288;-59
2021/07/22 04:45:46;;;;;;;10.60;6.43;;;;;;;14.83;60.01;100491.06;10362250;28;20084;-59
2021/07/22 04:50:48;;;;;;;8.65;6.30;;;;;;;14.97;59.81;100490.97;10364186;28;20157;-59
2021/07/22 04:55:50;;;;;;;9.30;6.28;;;;;;;15.26;59.48;100493.28;10364521;28;20092;-59
2021/07/22 05:00:53;;;;;;;10.05;5.82;;;;;;;15.54;58.83;100488.72;10379099;28;20137;-59
2021/07/22 05:05:55;;;;;;;9.10;6.50;;;;;;;15.64;58.63;100490.59;10364021;28;20054;-59
2021/07/22 05:10:58;;;;;;;16.10;6.68;;;;;;;15.61;58.76;100488.19;10363309;28;20053;-60
2021/07/22 05:15:59;;;;;;;10.93;6.93;;;;;;;15.71;58.51;100488.34;10363390;28;20041;-59
2021/07/22 05:21:07;;;;;;;12.00;6.28;;;;;;;15.96;58.05;100497.00;10363139;28;20050;-59
2021/07/22 05:26:12;;;;;;;8.80;6.53;;;;;;;16.33;57.39;100489.00;10363573;28;20056;-59
2021/07/22 05:31:13;;;;;;;11.20;6.40;;;;;;;16.54;56.63;100498.00;10363172;28;20557;-59
2021/07/22 05:36:15;;;;;;;13.68;7.00;;;;;;;16.74;56.52;100494.69;10363669;28;20050;-59
2021/07/22 05:41:17;;;;;;;9.70;6.20;;;;;;;17.09;55.83;100486.69;10362697;28;20058;-59
2021/07/22 05:46:19;;;;;;;11.75;6.28;;;;;;;17.46;54.89;100489.00;10361942;28;20120;-59
2021/07/22 05:51:21;;;;;;;11.82;6.88;;;;;;;17.71;54.34;100486.06;10362187;28;20112;-59
2021/07/22 05:56:23;;;;;;;9.32;6.57;;;;;;;17.79;53.64;100483.63;10364095;28;20042;-59
2021/07/22 06:01:25;;;;;;;11.40;6.97;;;;;;;18.03;53.27;100487.91;10370606;28;20198;-59
2021/07/22 06:06:26;;;;;;;9.55;6.32;;;;;;;18.65;51.97;100488.84;10371730;28;20077;-59
2021/07/22 06:11:28;;;;;;;14.57;6.32;;;;;;;19.06;50.99;100480.91;10370659;28;20412;-59
2021/07/22 06:16:30;;;;;;;9.20;6.45;;;;;;;19.20;50.43;100483.19;10370129;28;20125;-59
2021/07/22 06:21:32;;;;;;;10.40;6.25;;;;;;;19.06;50.86;100482.69;10369603;28;20449;-59
2021/07/22 06:26:35;;;;;;;11.75;6.80;;;;;;;19.58;50.00;100474.53;10369358;28;20570;-59
2021/07/22 06:31:36;;;;;;;8.68;6.32;;;;;;;19.72;49.33;100479.47;10369491;28;20077;-60
2021/07/22 06:36:38;;;;;;;10.77;6.35;;;;;;;20.10;48.54;100478.69;10369896;28;20138;-60
2021/07/22 06:41:40;;;;;;;8.48;6.40;;;;;;;20.55;47.80;100477.16;10369171;28;20133;-60
2021/07/22 06:46:41;;;;;;;11.45;6.28;;;;;;;21.07;46.60;100483.75;10369228;28;20140;-61
2021/07/22 06:51:43;;;;;;;12.35;6.00;;;;;;;21.05;46.85;100480.41;10369194;28;20050;-61
2021/07/22 06:56:45;;;;;;;8.43;5.80;;;;;;;21.45;46.29;100469.50;10367996;28;20496;-61
2021/07/22 07:01:46;;;;;;;10.55;6.40;;;;;;;21.44;46.27;100471.31;10366529;28;20171;-61
2021/07/22 07:06:48;;;;;;;10.93;6.07;;;;;;;21.66;45.97;100470.09;10380575;28;20054;-61
2021/07/22 07:11:50;;;;;;;9.13;6.22;;;;;;;21.99;45.56;100473.91;10400269;28;20140;-60
2021/07/22 07:16:51;;;;;;;11.40;6.75;;;;;;;22.16;45.40;100471.28;10378662;28;20091;-60
2021/07/22 07:21:53;;;;;;;8.57;6.22;;;;;;;22.70;44.21;100465.72;10400218;28;20054;-60
2021/07/22 07:26:55;;;;;;;15.27;6.70;;;;;;;22.94;43.09;100466.91;10366189;28;20054;-61
2021/07/22 07:32:00;;;;;;;10.80;6.22;;;;;;;22.93;42.86;100468.75;10386652;28;20064;-60
2021/07/22 07:37:02;;;;;;;9.57;6.72;;;;;;;23.05;42.81;100461.28;10396500;28;20099;-60
2021/07/22 07:42:04;;;;;;;10.98;6.32;;;;;;;23.63;42.03;100464.94;10405631;28;20484;-61
2021/07/22 07:47:06;;;;;;;9.73;6.38;;;;;;;23.90;40.59;100461.97;10404095;28;20130;-60
2021/07/22 07:52:07;;;;;;;13.88;7.28;;;;;;;24.38;38.82;100461.22;10389886;28;20169;-61
2021/07/22 07:57:09;;;;;;;10.88;6.55;;;;;;;25.21;37.33;100459.09;10364785;28;20136;-61
2021/07/22 08:02:11;;;;;;;12.10;6.13;;;;;;;25.99;36.13;100449.22;10368738;28;20129;-60
2021/07/22 08:07:13;;;;;;;8.25;6.03;;;;;;;25.95;36.21;100442.50;10401203;28;20148;-60
2021/07/22 08:12:18;;;;;;;9.48;6.40;;;;;;;25.65;35.92;100442.34;10392664;28;20042;-61
2021/07/22 08:17:25;;;;;;;8.85;6.03;;;;;;;26.34;34.63;100438.72;10377479;28;20056;-61
2021/07/22 08:22:27;;;;;;;12.82;6.05;;;;;;;26.61;34.05;100431.94;10379537;28;20077;-61
2021/07/22 08:27:30;;;;;;;8.10;5.90;;;;;;;26.54;35.20;100418.41;10362102;28;20080;-60
2021/07/22 08:32:32;;;;;;;7.85;5.80;;;;;;;27.12;33.00;100423.00;10364827;28;20054;-60
2021/07/22 08:37:35;;;;;;;7.88;5.68;;;;;;;27.28;33.33;100417.44;10365628;28;20052;-61
2021/07/22 08:42:40;;;;;;;10.30;5.88;;;;;;;26.96;34.08;100415.13;10362841;28;20072;-61
2021/07/22 08:47:42;;;;;;;6.70;5.63;;;;;;;27.67;32.80;100416.28;10364028;28;20136;-61
2021/07/22 08:52:47;;;;;;;6.68;5.05;;;;;;;27.68;32.02;100417.91;10363492;28;20141;-61
2021/07/22 08:57:49;;;;;;;11.32;6.00;;;;;;;27.84;31.57;100409.66;10355066;28;20053;-61
2021/07/22 09:02:54;;;;;;;14.55;6.22;;;;;;;27.95;31.08;100404.56;10363660;28;20128;-61
2021/07/22 09:07:55;;;;;;;9.32;5.50;;;;;;;28.19;31.30;100406.06;10363722;28;20453;-61
2021/07/22 09:12:57;;;;;;;12.20;5.70;;;;;;;28.16;30.56;100406.44;10362653;28;20120;-61
2021/07/22 09:17:59;;;;;;;10.75;5.68;;;;;;;28.15;30.08;100400.25;10362462;28;20133;-61
2021/07/22 09:23:03;;;;;;;7.45;4.50;;;;;;;28.44;28.87;100398.44;10362360;28;20072;-61
2021/07/22 09:28:05;;;;;;;8.13;5.20;;;;;;;28.28;30.04;100391.44;10362748;28;20133;-60
2021/07/22 09:33:07;;;;;;;7.18;4.88;;;;;;;28.22;29.03;100395.72;10367375;28;20112;-61
2021/07/22 09:38:11;;;;;;;7.35;4.82;;;;;;;28.27;28.53;100387.94;10370916;28;20056;-61
2021/07/22 09:43:41;;;;;;;6.78;4.72;;;;;;;28.81;26.22;100387.28;10370861;28;20129;-61
2021/07/22 09:49:08;;;;;;;7.10;5.00;;;;;;;28.58;26.05;100379.50;10370781;28;20395;-61
2021/07/22 09:54:12;;;;;;;6.78;4.65;;;;;;;28.65;25.91;100377.66;10370440;28;20093;-61
2021/07/22 09:59:14;;;;;;;6.25;4.90;;;;;;;28.13;26.58;100377.25;10371216;28;20054;-61
2021/07/22 10:04:20;;;;;;;8.02;5.25;;;;;;;28.45;27.54;100363.25;10369902;28;20506;-61
2021/07/22 10:09:25;;;;;;;7.63;5.00;;;;;;;28.94;26.66;100363.16;10369785;28;20521;-61
2021/07/22 10:14:29;;;;;;;9.25;4.78;;;;;;;28.69;26.35;100370.84;10369977;28;20042;-61
2021/07/22 10:19:31;;;;;;;8.93;5.05;;;;;;;28.99;25.55;100361.50;10369642;28;20157;-61
2021/07/22 10:24:33;;;;;;;7.18;4.90;;;;;;;28.50;25.26;100366.19;10370151;28;20044;-61
2021/07/22 10:29:35;;;;;;;8.82;5.13;;;;;;;27.08;28.03;100368.00;10369671;28;20137;-61
2021/07/22 10:34:38;;;;;;;7.90;4.85;;;;;;;28.01;26.18;100351.91;10368188;28;20053;-61
2021/07/22 10:40:05;;;;;;;8.02;5.15;;;;;;;28.90;25.30;100345.75;10368841;28;20056;-61
2021/07/22 10:45:22;;;;;;;8.52;4.70;;;;;;;29.03;24.91;100345.81;10369423;28;20517;-61
2021/07/22 10:50:54;;;;;;;6.53;4.50;;;;;;;29.13;26.24;100337.34;10368659;28;20050;-61
2021/07/22 10:55:55;;;;;;;6.32;4.78;;;;;;;28.87;26.41;100330.81;10371977;28;20265;-61
2021/07/22 11:00:57;;;;;;;6.00;4.50;;;;;;;28.67;26.69;100331.69;10368390;28;20136;-61
2021/07/22 11:06:10;;;;;;;7.03;4.53;;;;;;;28.82;26.21;100327.03;10367595;28;20421;-61
2021/07/22 11:11:14;;;;;;;7.18;4.63;;;;;;;28.84;26.03;100327.66;10369106;28;20390;-61
2021/07/22 11:16:28;;;;;;;7.55;4.95;;;;;;;28.87;24.64;100325.41;10368360;28;20565;-61
2021/07/22 11:21:47;;;;;;;6.03;4.35;;;;;;;28.39;24.59;100331.75;10367281;28;20064;-61
2021/07/22 11:26:53;;;;;;;7.93;4.80;;;;;;;28.49;27.00;100316.09;10367589;28;20554;-61
2021/07/22 11:31:56;;;;;;;10.77;5.05;;;;;;;28.86;27.13;100309.47;10366619;28;20140;-61
2021/07/22 11:36:59;;;;;;;5.45;4.50;;;;;;;28.61;26.34;100314.50;10366876;28;20100;-61
2021/07/22 11:42:06;;;;;;;5.93;4.53;;;;;;;28.09;28.20;100314.13;10367121;28;20050;-61
2021/07/22 11:47:13;;;;;;;6.85;4.40;;;;;;;27.58;28.25;100313.44;10365810;28;20088;-61
2021/07/22 11:52:15;;;;;;;7.15;4.63;;;;;;;27.16;28.07;100316.06;10365714;28;20069;-61
2021/07/22 11:57:17;;;;;;;9.43;4.80;;;;;;;27.31;27.85;100320.38;10365050;28;20042;-61
2021/07/22 12:02:20;;;;;;;6.93;4.65;;;;;;;28.12;26.23;100306.47;10365265;28;20053;-61
2021/07/22 12:07:27;;;;;;;6.93;5.00;;;;;;;28.11;26.84;100299.47;10365167;28;20053;-61
2021/07/22 12:12:33;;;;;;;7.03;4.57;;;;;;;28.84;27.18;100287.28;10365529;28;20092;-61
2021/07/22 12:17:38;;;;;;;6.80;4.97;;;;;;;28.20;28.06;100290.19;10364992;28;20203;-61
2021/07/22 12:22:42;;;;;;;6.63;4.53;;;;;;;27.82;28.46;100285.34;10364907;28;20076;-61
2021/07/22 12:27:46;;;;;;;6.80;4.65;;;;;;;27.87;28.06;100272.97;10365350;28;20132;-61
2021/07/22 12:32:49;;;;;;;6.82;4.78;;;;;;;27.64;27.33;100276.91;10364099;28;20058;-61
2021/07/22 12:37:54;;;;;;;8.38;4.70;;;;;;;27.83;28.22;100270.91;10364852;28;20045;-61
2021/07/22 12:42:58;;;;;;;6.68;4.40;;;;;;;27.82;28.07;100266.53;10379939;28;20053;-61
2021/07/22 12:47:59;;;;;;;6.72;4.80;;;;;;;27.79;28.47;100266.94;10364127;28;20081;-61
2021/07/22 12:53:07;;;;;;;7.90;4.80;;;;;;;27.75;28.22;100258.41;10363702;28;20046;-61
2021/07/22 12:58:34;;;;;;;7.50;4.45;;;;;;;27.54;29.26;100273.72;10363731;28;20577;-61
2021/07/22 13:03:41;;;;;;;7.10;4.75;;;;;;;27.70;29.20;100260.00;10363676;28;20081;-61
2021/07/22 13:08:43;;;;;;;7.68;4.65;;;;;;;27.68;29.12;100262.03;10363279;28;20483;-61
2021/07/22 13:13:48;;;;;;;6.55;4.60;;;;;;;28.09;28.56;100254.97;10363973;28;20104;-61
2021/07/22 13:18:50;;;;;;;8.23;4.68;;;;;;;28.61;27.42;100244.50;10361926;28;20050;-61
2021/07/22 13:23:52;;;;;;;6.15;4.90;;;;;;;28.93;27.67;100241.13;10363003;28;20494;-61
2021/07/22 13:28:54;;;;;;;6.03;4.70;;;;;;;28.66;28.01;100236.69;10362861;28;20496;-61
2021/07/22 13:33:55;;;;;;;8.07;4.57;;;;;;;28.70;27.63;100232.56;10363166;28;20054;-61
2021/07/22 13:38:57;;;;;;;8.05;4.47;;;;;;;28.20;28.48;100227.50;10346494;28;20137;-62
2021/07/22 13:43:59;;;;;;;12.75;4.78;;;;;;;27.97;29.18;100229.66;10367793;28;20415;-61
2021/07/22 13:49:01;;;;;;;10.43;4.63;;;;;;;28.00;29.15;100222.00;10353173;28;20049;-61
2021/07/22 13:54:02;;;;;;;6.65;4.45;;;;;;;27.90;30.13;100234.13;10361443;28;20164;-61
2021/07/22 13:59:15;;;;;;;7.50;5.28;;;;;;;27.57;30.02;100224.94;10363068;28;20050;-61
2021/07/22 14:04:17;;;;;;;7.68;4.78;;;;;;;27.68;30.09;100229.78;10377477;28;20046;-61
2021/07/22 14:09:19;;;;;;;8.95;4.97;;;;;;;27.56;29.80;100223.28;10377069;28;20080;-61
2021/07/22 14:14:21;;;;;;;6.57;4.75;;;;;;;27.73;29.89;100219.34;10362474;28;20050;-62
2021/07/22 14:19:23;;;;;;;14.10;5.40;;;;;;;27.79;30.40;100218.56;10366368;28;20449;-61
2021/07/22 14:24:26;;;;;;;8.30;5.00;;;;;;;27.74;30.17;100210.25;10385241;28;20081;-62
2021/07/22 14:29:28;;;;;;;7.47;4.95;;;;;;;27.39;30.12;100204.75;10369668;28;20058;-62
2021/07/22 14:34:30;;;;;;;7.35;4.80;;;;;;;27.50;29.67;100211.47;10369135;28;20121;-61
2021/07/22 14:39:31;;;;;;;10.93;5.20;;;;;;;27.67;29.35;100206.66;10368721;28;20241;-61
2021/07/22 14:44:33;;;;;;;8.68;4.80;;;;;;;27.86;30.08;100201.44;10369139;28;20141;-62
2021/07/22 14:49:35;;;;;;;8.55;4.53;;;;;;;27.52;30.03;100206.75;10383514;28;20840;-61
2021/07/22 14:54:37;;;;;;;9.55;4.90;;;;;;;27.27;30.13;100209.00;10369232;28;20054;-62
2021/07/22 14:59:39;;;;;;;11.05;4.75;;;;;;;27.19;30.50;100209.13;10368037;28;20380;-61
2021/07/22 15:04:40;;;;;;;6.85;4.80;;;;;;;26.97;31.07;100199.38;10366762;28;20042;-61
2021/07/22 15:09:42;;;;;;;6.25;4.80;;;;;;;27.10;30.93;100194.13;10375281;28;20058;-61
2021/07/22 15:14:44;;;;;;;8.90;4.97;;;;;;;27.35;31.00;100189.22;10388921;28;20045;-61
2021/07/22 15:19:46;;;;;;;11.32;5.10;;;;;;;27.35;30.65;100187.38;10371052;28;20057;-61
2021/07/22 15:24:48;;;;;;;6.40;4.72;;;;;;;27.41;30.92;100175.84;10371450;28;20077;-61
2021/07/22 15:29:50;;;;;;;9.40;4.80;;;;;;;27.50;30.44;100171.97;10365165;28;20180;-61
2021/07/22 15:34:52;;;;;;;8.00;5.30;;;;;;;27.70;30.03;100171.31;10362519;28;20576;-61
2021/07/22 15:39:54;;;;;;;7.90;4.85;;;;;;;27.58;30.63;100170.19;10362216;28;20115;-61
2021/07/22 15:45:00;;;;;;;7.70;4.55;;;;;;;27.57;30.46;100155.91;10365896;28;20057;-61
2021/07/22 15:50:02;;;;;;;7.00;4.60;;;;;;;27.22;30.31;100165.75;10363230;28;20080;-61
2021/07/22 15:55:05;;;;;;;7.63;4.93;;;;;;;26.99;30.88;100165.13;10365941;28;20137;-61
2021/07/22 16:00:07;;;;;;;8.13;4.95;;;;;;;27.05;31.09;100158.13;10365853;28;20053;-61
2021/07/22 16:05:12;;;;;;;7.43;4.53;;;;;;;26.68;31.17;100151.16;10365265;28;20548;-61
2021/07/22 16:10:13;;;;;;;9.57;5.05;;;;;;;26.77;31.22;100152.72;10364273;28;20514;-61
2021/07/22 16:15:15;;;;;;;6.90;4.88;;;;;;;26.65;31.38;100147.00;10365635;28;20045;-61
2021/07/22 16:20:17;;;;;;;7.45;4.88;;;;;;;26.65;31.38;100138.09;10364921;28;20089;-61
2021/07/22 16:25:19;;;;;;;8.02;4.82;;;;;;;26.43;31.30;100139.06;10365217;28;20045;-61
2021/07/22 16:30:21;;;;;;;9.50;4.72;;;;;;;26.49;31.20;100130.25;10365034;28;20176;-61
2021/07/22 16:35:24;;;;;;;8.40;5.03;;;;;;;26.42;31.89;100116.78;10363925;28;20053;-61
2021/07/22 16:40:27;;;;;;;6.18;4.45;;;;;;;26.24;31.94;100115.53;10360224;28;20378;-61
2021/07/22 16:45:29;;;;;;;7.38;4.90;;;;;;;26.13;32.48;100118.69;10344787;28;20133;-61
2021/07/22 16:50:31;;;;;;;7.72;4.60;;;;;;;25.94;31.77;100119.25;10330328;28;20080;-61
2021/07/22 16:55:33;;;;;;;12.13;5.28;;;;;;;26.10;32.98;100105.66;10363966;28;20133;-62
2021/07/22 17:00:35;;;;;;;6.57;5.03;;;;;;;26.49;32.16;100103.44;10363252;28;20479;-61
2021/07/22 17:05:38;;;;;;;7.65;5.20;;;;;;;26.18;32.43;100106.38;10363930;28;20054;-61
2021/07/22 17:10:39;;;;;;;10.02;8.13;;;;;;;25.97;33.30;100103.66;10364066;28;20493;-61
2021/07/22 17:15:41;;;;;;;8.55;5.30;;;;;;;25.95;33.53;100091.41;10362784;28;20140;-62
2021/07/22 17:20:44;;;;;;;8.80;5.38;;;;;;;26.13;32.69;100091.88;10362185;28;20136;-61
2021/07/22 17:25:45;;;;;;;7.30;5.53;;;;;;;26.24;32.56;100086.03;10363176;28;20130;-61
2021/07/22 17:30:47;;;;;;;9.88;5.78;;;;;;;26.10;32.62;100084.22;10363114;28;20128;-61
2021/07/22 17:35:49;;;;;;;23.25;20.17;;;;;;;25.98;33.03;100083.03;10362253;28;20046;-61
2021/07/22 17:40:51;;;;;;;17.52;14.23;;;;;;;25.67;35.17;100078.66;10362784;28;20046;-61
2021/07/22 17:45:52;;;;;;;11.68;6.18;;;;;;;25.75;34.54;100081.25;10362476;28;20464;-61
2021/07/22 17:50:54;;;;;;;8.65;5.90;;;;;;;25.87;34.79;100084.31;10362297;28;20560;-62
2021/07/22 17:55:56;;;;;;;10.60;8.20;;;;;;;25.80;34.86;100080.69;10369257;28;20469;-62
2021/07/22 18:00:58;;;;;;;42.35;34.45;;;;;;;25.69;34.70;100082.00;10369776;28;20478;-61
2021/07/22 18:06:00;;;;;;;7.93;5.60;;;;;;;25.65;35.79;100078.03;10362058;28;20046;-62
2021/07/22 18:11:07;;;;;;;27.30;18.75;;;;;;;25.53;36.03;100081.38;10354800;28;20054;-62
2021/07/22 18:16:09;;;;;;;7.55;5.60;;;;;;;25.10;37.57;100080.25;10370415;28;20133;-61
2021/07/22 18:21:11;;;;;;;11.65;6.55;;;;;;;24.94;37.51;100085.72;10369030;28;20471;-61
2021/07/22 18:26:15;;;;;;;8.02;5.28;;;;;;;24.78;38.64;100085.84;10361041;28;20557;-62
2021/07/22 18:31:29;;;;;;;8.02;5.47;;;;;;;24.46;39.06;100078.88;10328779;28;20050;-61
2021/07/22 18:36:39;;;;;;;6.80;5.40;;;;;;;24.13;39.80;100083.56;10368848;28;20129;-61
2021/07/22 18:41:41;;;;;;;13.15;5.20;;;;;;;24.00;40.89;100080.59;10368546;28;20046;-61
2021/07/22 18:46:43;;;;;;;7.85;5.35;;;;;;;23.82;41.29;100088.00;10332084;28;20073;-61
2021/07/22 18:51:44;;;;;;;11.65;5.45;;;;;;;23.57;41.91;100081.09;10345653;28;20137;-61
2021/07/22 18:56:48;;;;;;;10.02;5.70;;;;;;;23.09;42.99;100075.78;10365211;28;20157;-61
2021/07/22 19:01:50;;;;;;;10.00;5.78;;;;;;;22.98;43.48;100079.66;10368485;28;20054;-62
2021/07/22 19:06:51;;;;;;;9.95;5.57;;;;;;;22.87;43.85;100085.31;10367477;28;20042;-61
2021/07/22 19:11:53;;;;;;;8.30;5.55;;;;;;;22.68;44.18;100082.91;10368284;28;20077;-62
2021/07/22 19:16:55;;;;;;;9.25;5.47;;;;;;;22.51;44.86;100087.44;10367678;28;20077;-61
2021/07/22 19:21:57;;;;;;;9.63;5.53;;;;;;;22.34;45.76;100096.38;10366197;28;20387;-61
2021/07/22 19:26:59;;;;;;;9.13;6.50;;;;;;;22.08;46.58;100095.63;10366914;28;20509;-61
2021/07/22 19:32:00;;;;;;;10.32;7.35;;;;;;;21.83;46.95;100101.81;10366229;28;20101;-60
2021/07/22 19:37:02;;;;;;;9.95;6.03;;;;;;;21.69;47.36;100100.59;10367086;28;20439;-61
2021/07/22 19:42:05;;;;;;;10.93;6.00;;;;;;;21.49;47.92;100109.78;10366138;28;20137;-61
2021/07/22 19:47:07;;;;;;;9.65;5.75;;;;;;;21.26;48.52;100107.75;10366179;28;20253;-60
2021/07/22 19:52:09;;;;;;;7.53;5.07;;;;;;;21.17;48.60;100112.16;10366278;28;20132;-61
2021/07/22 19:57:10;;;;;;;9.18;5.80;;;;;;;21.03;49.08;100123.34;10364556;28;20124;-61
2021/07/22 20:02:12;;;;;;;9.00;5.80;;;;;;;20.76;49.51;100116.31;10365827;28;20593;-61
2021/07/22 20:07:15;;;;;;;9.77;5.55;;;;;;;20.61;50.29;100112.50;10364311;28;20486;-61
2021/07/22 20:12:17;;;;;;;8.55;5.80;;;;;;;20.49;50.36;100119.00;10365227;28;20551;-60
2021/07/22 20:17:19;;;;;;;8.68;5.85;;;;;;;20.32;50.70;100117.16;10364989;28;20140;-61
2021/07/22 20:22:21;;;;;;;9.45;5.82;;;;;;;20.18;51.12;100117.66;10362543;28;20089;-60
2021/07/22 20:27:23;;;;;;;7.30;5.68;;;;;;;20.09;51.62;100116.72;10378908;28;20482;-60
2021/07/22 20:32:24;;;;;;;8.05;5.75;;;;;;;20.03;51.56;100119.16;10363236;28;20137;-61
2021/07/22 20:37:26;;;;;;;8.68;5.57;;;;;;;19.97;51.71;100127.69;10363675;28;20140;-60
2021/07/22 20:42:28;;;;;;;9.38;5.80;;;;;;;19.82;51.99;100123.84;10362501;28;20050;-60
2021/07/22 20:47:30;;;;;;;10.43;5.90;;;;;;;19.67;52.13;100119.94;10363479;28;20129;-61
2021/07/22 20:52:32;;;;;;;8.88;5.88;;;;;;;19.54;52.56;100122.94;10362421;28;20050;-60
2021/07/22 20:57:34;;;;;;;8.18;5.95;;;;;;;19.48;52.77;100126.16;10361712;28;20052;-60
2021/07/22 21:02:38;;;;;;;16.05;5.47;;;;;;;19.45;52.93;100126.44;10362928;28;20053;-61
2021/07/22 21:07:40;;;;;;;8.45;5.63;;;;;;;19.40;52.72;100126.00;10361046;28;20072;-60
2021/07/22 21:12:43;;;;;;;9.23;6.00;;;;;;;19.31;52.64;100119.78;10363333;28;20050;-61
2021/07/22 21:17:46;;;;;;;7.93;6.13;;;;;;;19.26;52.97;100122.00;10362692;28;20474;-60
2021/07/22 21:22:48;;;;;;;9.98;5.68;;;;;;;19.24;53.15;100120.47;10361704;28;20077;-61
2021/07/22 21:27:49;;;;;;;10.25;6.05;;;;;;;19.10;53.59;100121.75;10361080;28;20044;-61
2021/07/22 21:32:51;;;;;;;9.27;6.50;;;;;;;18.79;54.38;100124.66;10362480;28;20741;-60
2021/07/22 21:37:56;;;;;;;10.27;6.28;;;;;;;18.69;54.65;100121.19;10362486;28;20569;-60
2021/07/22 21:42:58;;;;;;;11.50;6.88;;;;;;;18.59;54.64;100114.03;10362176;28;20613;-61
2021/07/22 21:47:59;;;;;;;9.05;6.63;;;;;;;18.45;55.10;100126.84;10362317;28;20132;-61
2021/07/22 21:53:01;;;;;;;8.90;6.18;;;;;;;18.31;55.37;100129.88;10362332;28;20136;-60
2021/07/22 21:58:03;;;;;;;10.50;6.10;;;;;;;18.23;55.59;100132.38;10361900;28;20116;-61
2021/07/22 22:03:05;;;;;;;8.88;6.38;;;;;;;18.11;55.89;100126.31;10377445;28;20136;-61
2021/07/22 22:08:07;;;;;;;10.50;7.00;;;;;;;17.97;56.04;100121.41;10361132;28;20129;-61
2021/07/22 22:13:10;;;;;;;10.77;7.05;;;;;;;17.96;56.37;100132.09;10362222;28;20053;-60
2021/07/22 22:18:11;;;;;;;9.75;6.30;;;;;;;17.90;56.50;100132.63;10361848;28;20125;-60
2021/07/22 22:23:13;;;;;;;9.48;6.65;;;;;;;17.84;56.64;100131.38;10361253;28;20621;-61
2021/07/22 22:28:15;;;;;;;9.02;6.25;;;;;;;17.83;56.47;100138.47;10360805;28;20046;-60
2021/07/22 22:33:16;;;;;;;11.27;6.47;;;;;;;17.85;56.47;100135.69;10361935;28;20137;-61
2021/07/22 22:38:18;;;;;;;10.70;6.72;;;;;;;17.78;56.72;100140.69;10362011;28;20049;-60
2021/07/22 22:43:20;;;;;;;11.23;6.32;;;;;;;17.71;56.51;100136.88;10368394;28;20383;-60
2021/07/22 22:48:21;;;;;;;11.20;6.80;;;;;;;17.69;56.63;100128.22;10368426;28;20417;-61
2021/07/22 22:53:23;;;;;;;7.63;6.28;;;;;;;17.55;56.79;100131.22;10368283;28;20120;-60
2021/07/22 22:58:26;;;;;;;10.43;6.30;;;;;;;17.54;56.90;100137.50;10367680;28;20053;-60
2021/07/22 23:03:27;;;;;;;9.32;6.57;;;;;;;17.48;57.12;100138.03;10367049;28;20128;-60
2021/07/22 23:08:29;;;;;;;9.07;6.72;;;;;;;17.49;57.18;100139.69;10367435;28;20292;-60